sensor_id;sensor_type;location;lat;lon;timestamp;P1;durP1;ratioP1;P2;durP2;ratioP2
16922;SDS011;8578;50.938;13.556;2023-04-15T00:02:12;1.20;;;0.80;;
16922;SDS011;8578;50.938;13.556;2023-04-15T00:04:40;0.97;;;0.60;;
16922;SDS011;8578;50.938;13.556;2023-04-15T00:07:07;0.80;;;0.63;;
16922;SDS011;8578;50.938;13.556;2023-04-15T00:09:35;0.80;;;0.70;;
16922;SDS011;8578;50.938;13.556;2023-04-15T00:12:03;0.73;;;0.47;;
16922;SDS011;8578;50.938;13.556;2023-04-15T00:14:33;0.83;;;0.67;;
16922;SDS011;8578;50.938;13.556;2023-04-15T00:17:01;0.93;;;0.77;;
16922;SDS011;8578;50.938;13.556;2023-04-15T00:19:29;1.00;;;0.80;;
16922;SDS011;8578;50.938;13.556;2023-04-15T00:21:57;0.50;;;0.47;;
16922;SDS011;8578;50.938;13.556;2023-04-15T00:24:24;0.70;;;0.40;;
16922;SDS011;8578;50.938;13.556;2023-04-15T00:26:52;1.20;;;0.80;;
16922;SDS011;8578;50.938;13.556;2023-04-15T00:29:19;0.93;;;0.47;;
16922;SDS011;8578;50.938;13.556;2023-04-15T00:31:48;0.80;;;0.60;;
16922;SDS011;8578;50.938;13.556;2023-04-15T00:34:16;0.70;;;0.60;;
16922;SDS011;8578;50.938;13.556;2023-04-15T00:36:43;0.80;;;0.57;;
16922;SDS011;8578;50.938;13.556;2023-04-15T00:39:11;0.50;;;0.47;;
16922;SDS011;8578;50.938;13.556;2023-04-15T00:41:41;0.87;;;0.50;;
16922;SDS011;8578;50.938;13.556;2023-04-15T00:44:08;0.40;;;0.33;;
16922;SDS011;8578;50.938;13.556;2023-04-15T00:46:37;0.70;;;0.50;;
16922;SDS011;8578;50.938;13.556;2023-04-15T00:49:06;0.83;;;0.60;;
16922;SDS011;8578;50.938;13.556;2023-04-15T00:51:33;0.80;;;0.60;;
16922;SDS011;8578;50.938;13.556;2023-04-15T00:54:02;0.60;;;0.43;;
16922;SDS011;8578;50.938;13.556;2023-04-15T00:56:30;0.50;;;0.40;;
16922;SDS011;8578;50.938;13.556;2023-04-15T00:58:58;0.53;;;0.40;;
16922;SDS011;8578;50.938;13.556;2023-04-15T01:01:26;0.60;;;0.40;;
16922;SDS011;8578;50.938;13.556;2023-04-15T01:03:55;0.67;;;0.50;;
16922;SDS011;8578;50.938;13.556;2023-04-15T01:06:24;0.40;;;0.40;;
16922;SDS011;8578;50.938;13.556;2023-04-15T01:08:52;0.60;;;0.40;;
16922;SDS011;8578;50.938;13.556;2023-04-15T01:11:20;0.80;;;0.60;;
16922;SDS011;8578;50.938;13.556;2023-04-15T01:13:49;0.70;;;0.50;;
16922;SDS011;8578;50.938;13.556;2023-04-15T01:16:17;1.10;;;0.80;;
16922;SDS011;8578;50.938;13.556;2023-04-15T01:18:45;0.77;;;0.60;;
16922;SDS011;8578;50.938;13.556;2023-04-15T01:21:13;0.70;;;0.50;;
16922;SDS011;8578;50.938;13.556;2023-04-15T01:23:41;1.00;;;0.63;;
16922;SDS011;8578;50.938;13.556;2023-04-15T01:26:12;0.83;;;0.77;;
16922;SDS011;8578;50.938;13.556;2023-04-15T01:28:40;1.33;;;0.73;;
16922;SDS011;8578;50.938;13.556;2023-04-15T01:31:08;0.87;;;0.63;;
16922;SDS011;8578;50.938;13.556;2023-04-15T01:33:36;0.73;;;0.60;;
16922;SDS011;8578;50.938;13.556;2023-04-15T01:36:05;1.23;;;0.83;;
16922;SDS011;8578;50.938;13.556;2023-04-15T01:38:33;0.97;;;0.67;;
16922;SDS011;8578;50.938;13.556;2023-04-15T01:41:01;0.93;;;0.70;;
16922;SDS011;8578;50.938;13.556;2023-04-15T01:43:30;2.10;;;0.80;;
16922;SDS011;8578;50.938;13.556;2023-04-15T01:45:58;1.73;;;0.57;;
16922;SDS011;8578;50.938;13.556;2023-04-15T01:48:25;0.80;;;0.63;;
16922;SDS011;8578;50.938;13.556;2023-04-15T01:50:53;0.63;;;0.57;;
16922;SDS011;8578;50.938;13.556;2023-04-15T01:53:22;0.80;;;0.50;;
16922;SDS011;8578;50.938;13.556;2023-04-15T01:55:50;0.70;;;0.60;;
16922;SDS011;8578;50.938;13.556;2023-04-15T01:58:18;1.10;;;0.70;;
16922;SDS011;8578;50.938;13.556;2023-04-15T02:00:47;1.13;;;0.70;;
16922;SDS011;8578;50.938;13.556;2023-04-15T02:03:15;0.60;;;0.50;;
16922;SDS011;8578;50.938;13.556;2023-04-15T02:05:43;0.90;;;0.70;;
16922;SDS011;8578;50.938;13.556;2023-04-15T02:08:10;0.50;;;0.40;;
16922;SDS011;8578;50.938;13.556;2023-04-15T02:10:38;0.63;;;0.50;;
16922;SDS011;8578;50.938;13.556;2023-04-15T02:13:06;0.87;;;0.53;;
16922;SDS011;8578;50.938;13.556;2023-04-15T02:15:33;0.87;;;0.57;;
16922;SDS011;8578;50.938;13.556;2023-04-15T02:18:02;0.40;;;0.40;;
16922;SDS011;8578;50.938;13.556;2023-04-15T02:20:30;0.97;;;0.50;;
16922;SDS011;8578;50.938;13.556;2023-04-15T02:22:57;0.90;;;0.60;;
16922;SDS011;8578;50.938;13.556;2023-04-15T02:25:25;0.70;;;0.50;;
16922;SDS011;8578;50.938;13.556;2023-04-15T02:27:53;0.83;;;0.60;;
16922;SDS011;8578;50.938;13.556;2023-04-15T02:30:23;0.83;;;0.60;;
16922;SDS011;8578;50.938;13.556;2023-04-15T02:32:53;0.50;;;0.40;;
16922;SDS011;8578;50.938;13.556;2023-04-15T02:35:24;0.90;;;0.60;;
16922;SDS011;8578;50.938;13.556;2023-04-15T02:37:53;0.80;;;0.60;;
16922;SDS011;8578;50.938;13.556;2023-04-15T02:40:21;1.10;;;0.73;;
16922;SDS011;8578;50.938;13.556;2023-04-15T02:42:49;0.80;;;0.70;;
16922;SDS011;8578;50.938;13.556;2023-04-15T02:45:17;0.63;;;0.53;;
16922;SDS011;8578;50.938;13.556;2023-04-15T02:47:48;0.70;;;0.50;;
16922;SDS011;8578;50.938;13.556;2023-04-15T02:50:16;0.70;;;0.40;;
16922;SDS011;8578;50.938;13.556;2023-04-15T02:52:45;0.50;;;0.50;;
16922;SDS011;8578;50.938;13.556;2023-04-15T02:55:12;0.73;;;0.53;;
16922;SDS011;8578;50.938;13.556;2023-04-15T02:57:40;0.50;;;0.50;;
16922;SDS011;8578;50.938;13.556;2023-04-15T03:00:09;0.60;;;0.50;;
16922;SDS011;8578;50.938;13.556;2023-04-15T03:02:40;0.50;;;0.50;;
16922;SDS011;8578;50.938;13.556;2023-04-15T03:05:10;0.73;;;0.40;;
16922;SDS011;8578;50.938;13.556;2023-04-15T03:07:47;0.47;;;0.40;;
16922;SDS011;8578;50.938;13.556;2023-04-15T03:10:15;0.90;;;0.60;;
16922;SDS011;8578;50.938;13.556;2023-04-15T03:12:42;0.60;;;0.50;;
16922;SDS011;8578;50.938;13.556;2023-04-15T03:15:14;0.70;;;0.60;;
16922;SDS011;8578;50.938;13.556;2023-04-15T03:17:46;0.60;;;0.50;;
16922;SDS011;8578;50.938;13.556;2023-04-15T03:20:14;1.00;;;0.70;;
16922;SDS011;8578;50.938;13.556;2023-04-15T03:22:42;0.40;;;0.40;;
16922;SDS011;8578;50.938;13.556;2023-04-15T03:25:11;1.07;;;0.60;;
16922;SDS011;8578;50.938;13.556;2023-04-15T03:27:39;0.40;;;0.40;;
16922;SDS011;8578;50.938;13.556;2023-04-15T03:30:07;0.80;;;0.60;;
16922;SDS011;8578;50.938;13.556;2023-04-15T03:32:37;0.70;;;0.50;;
16922;SDS011;8578;50.938;13.556;2023-04-15T03:35:05;0.90;;;0.50;;
16922;SDS011;8578;50.938;13.556;2023-04-15T03:37:33;0.80;;;0.50;;
16922;SDS011;8578;50.938;13.556;2023-04-15T03:40:01;0.87;;;0.53;;
16922;SDS011;8578;50.938;13.556;2023-04-15T03:42:30;0.50;;;0.40;;
16922;SDS011;8578;50.938;13.556;2023-04-15T03:44:58;0.80;;;0.70;;
16922;SDS011;8578;50.938;13.556;2023-04-15T03:47:25;0.90;;;0.67;;
16922;SDS011;8578;50.938;13.556;2023-04-15T03:49:53;0.90;;;0.63;;
16922;SDS011;8578;50.938;13.556;2023-04-15T03:52:21;0.63;;;0.50;;
16922;SDS011;8578;50.938;13.556;2023-04-15T03:54:48;0.80;;;0.60;;
16922;SDS011;8578;50.938;13.556;2023-04-15T03:57:16;0.60;;;0.60;;
16922;SDS011;8578;50.938;13.556;2023-04-15T03:59:45;0.60;;;0.40;;
16922;SDS011;8578;50.938;13.556;2023-04-15T04:02:12;0.90;;;0.60;;
16922;SDS011;8578;50.938;13.556;2023-04-15T04:04:40;0.60;;;0.50;;
16922;SDS011;8578;50.938;13.556;2023-04-15T04:07:13;0.60;;;0.50;;
16922;SDS011;8578;50.938;13.556;2023-04-15T04:09:41;0.60;;;0.60;;
16922;SDS011;8578;50.938;13.556;2023-04-15T04:12:10;0.50;;;0.50;;
16922;SDS011;8578;50.938;13.556;2023-04-15T04:14:37;1.57;;;0.60;;
16922;SDS011;8578;50.938;13.556;2023-04-15T04:17:06;0.40;;;0.40;;
16922;SDS011;8578;50.938;13.556;2023-04-15T04:19:33;0.80;;;0.60;;
16922;SDS011;8578;50.938;13.556;2023-04-15T04:22:01;1.50;;;0.43;;
16922;SDS011;8578;50.938;13.556;2023-04-15T04:24:29;0.73;;;0.50;;
16922;SDS011;8578;50.938;13.556;2023-04-15T04:26:56;0.60;;;0.50;;
16922;SDS011;8578;50.938;13.556;2023-04-15T04:29:24;0.40;;;0.30;;
16922;SDS011;8578;50.938;13.556;2023-04-15T04:31:52;0.63;;;0.40;;
16922;SDS011;8578;50.938;13.556;2023-04-15T04:34:21;0.33;;;0.30;;
16922;SDS011;8578;50.938;13.556;2023-04-15T04:36:48;0.30;;;0.30;;
16922;SDS011;8578;50.938;13.556;2023-04-15T04:39:15;0.30;;;0.30;;
16922;SDS011;8578;50.938;13.556;2023-04-15T04:41:43;0.60;;;0.27;;
16922;SDS011;8578;50.938;13.556;2023-04-15T04:44:11;0.63;;;0.40;;
16922;SDS011;8578;50.938;13.556;2023-04-15T04:46:39;0.20;;;0.20;;
16922;SDS011;8578;50.938;13.556;2023-04-15T04:49:06;0.50;;;0.40;;
16922;SDS011;8578;50.938;13.556;2023-04-15T04:51:35;0.50;;;0.40;;
16922;SDS011;8578;50.938;13.556;2023-04-15T04:54:02;4.03;;;0.30;;
16922;SDS011;8578;50.938;13.556;2023-04-15T04:56:30;0.50;;;0.30;;
16922;SDS011;8578;50.938;13.556;2023-04-15T04:58:57;0.37;;;0.30;;
16922;SDS011;8578;50.938;13.556;2023-04-15T05:01:25;0.77;;;0.40;;
16922;SDS011;8578;50.938;13.556;2023-04-15T05:03:52;0.20;;;0.13;;
16922;SDS011;8578;50.938;13.556;2023-04-15T05:06:21;0.20;;;0.20;;
16922;SDS011;8578;50.938;13.556;2023-04-15T05:08:50;0.70;;;0.40;;
16922;SDS011;8578;50.938;13.556;2023-04-15T05:11:17;0.30;;;0.20;;
16922;SDS011;8578;50.938;13.556;2023-04-15T05:13:44;0.30;;;0.20;;
16922;SDS011;8578;50.938;13.556;2023-04-15T05:16:12;0.40;;;0.20;;
16922;SDS011;8578;50.938;13.556;2023-04-15T05:18:39;0.20;;;0.20;;
16922;SDS011;8578;50.938;13.556;2023-04-15T05:21:07;0.00;;;0.00;;
16922;SDS011;8578;50.938;13.556;2023-04-15T05:23:35;0.30;;;0.10;;
16922;SDS011;8578;50.938;13.556;2023-04-15T05:26:04;0.13;;;0.13;;
16922;SDS011;8578;50.938;13.556;2023-04-15T05:28:31;0.50;;;0.23;;
16922;SDS011;8578;50.938;13.556;2023-04-15T05:30:59;0.23;;;0.20;;
16922;SDS011;8578;50.938;13.556;2023-04-15T05:33:27;0.30;;;0.20;;
16922;SDS011;8578;50.938;13.556;2023-04-15T05:35:54;0.10;;;0.10;;
16922;SDS011;8578;50.938;13.556;2023-04-15T05:38:21;0.20;;;0.20;;
16922;SDS011;8578;50.938;13.556;2023-04-15T05:40:49;0.20;;;0.13;;
16922;SDS011;8578;50.938;13.556;2023-04-15T05:43:18;3.20;;;0.20;;
16922;SDS011;8578;50.938;13.556;2023-04-15T05:45:45;0.30;;;0.30;;
16922;SDS011;8578;50.938;13.556;2023-04-15T05:48:13;0.20;;;0.20;;
16922;SDS011;8578;50.938;13.556;2023-04-15T05:50:41;0.50;;;0.30;;
16922;SDS011;8578;50.938;13.556;2023-04-15T05:53:08;0.40;;;0.40;;
16922;SDS011;8578;50.938;13.556;2023-04-15T05:55:35;0.73;;;0.40;;
16922;SDS011;8578;50.938;13.556;2023-04-15T05:58:03;1.07;;;0.50;;
16922;SDS011;8578;50.938;13.556;2023-04-15T06:00:32;0.70;;;0.50;;
16922;SDS011;8578;50.938;13.556;2023-04-15T06:02:59;0.60;;;0.43;;
16922;SDS011;8578;50.938;13.556;2023-04-15T06:05:27;1.10;;;0.60;;
16922;SDS011;8578;50.938;13.556;2023-04-15T06:07:54;1.23;;;0.50;;
16922;SDS011;8578;50.938;13.556;2023-04-15T06:10:22;0.43;;;0.40;;
16922;SDS011;8578;50.938;13.556;2023-04-15T06:12:51;0.80;;;0.50;;
16922;SDS011;8578;50.938;13.556;2023-04-15T06:15:19;0.70;;;0.60;;
16922;SDS011;8578;50.938;13.556;2023-04-15T06:17:47;0.80;;;0.60;;
16922;SDS011;8578;50.938;13.556;2023-04-15T06:20:15;0.60;;;0.60;;
16922;SDS011;8578;50.938;13.556;2023-04-15T06:22:42;0.57;;;0.40;;
16922;SDS011;8578;50.938;13.556;2023-04-15T06:25:10;0.93;;;0.67;;
16922;SDS011;8578;50.938;13.556;2023-04-15T06:27:38;1.00;;;0.70;;
16922;SDS011;8578;50.938;13.556;2023-04-15T06:30:07;0.70;;;0.50;;
16922;SDS011;8578;50.938;13.556;2023-04-15T06:32:35;0.63;;;0.57;;
16922;SDS011;8578;50.938;13.556;2023-04-15T06:35:04;1.07;;;0.63;;
16922;SDS011;8578;50.938;13.556;2023-04-15T06:37:31;1.13;;;0.40;;
16922;SDS011;8578;50.938;13.556;2023-04-15T06:39:59;0.40;;;0.40;;
16922;SDS011;8578;50.938;13.556;2023-04-15T06:42:26;0.30;;;0.30;;
16922;SDS011;8578;50.938;13.556;2023-04-15T06:44:54;0.33;;;0.30;;
16922;SDS011;8578;50.938;13.556;2023-04-15T06:47:21;0.30;;;0.27;;
16922;SDS011;8578;50.938;13.556;2023-04-15T06:49:48;0.73;;;0.20;;
16922;SDS011;8578;50.938;13.556;2023-04-15T06:52:17;2.40;;;0.40;;
16922;SDS011;8578;50.938;13.556;2023-04-15T06:54:45;1.13;;;0.60;;
16922;SDS011;8578;50.938;13.556;2023-04-15T06:57:12;1.63;;;0.40;;
16922;SDS011;8578;50.938;13.556;2023-04-15T06:59:40;0.37;;;0.17;;
16922;SDS011;8578;50.938;13.556;2023-04-15T07:02:08;0.50;;;0.40;;
16922;SDS011;8578;50.938;13.556;2023-04-15T07:04:38;0.40;;;0.37;;
16922;SDS011;8578;50.938;13.556;2023-04-15T07:07:07;0.73;;;0.70;;
16922;SDS011;8578;50.938;13.556;2023-04-15T07:09:36;2.93;;;0.50;;
16922;SDS011;8578;50.938;13.556;2023-04-15T07:12:04;0.70;;;0.30;;
16922;SDS011;8578;50.938;13.556;2023-04-15T07:14:31;0.70;;;0.20;;
16922;SDS011;8578;50.938;13.556;2023-04-15T07:16:58;0.53;;;0.23;;
16922;SDS011;8578;50.938;13.556;2023-04-15T07:19:27;0.47;;;0.30;;
16922;SDS011;8578;50.938;13.556;2023-04-15T07:21:54;0.17;;;0.13;;
16922;SDS011;8578;50.938;13.556;2023-04-15T07:24:22;0.50;;;0.30;;
16922;SDS011;8578;50.938;13.556;2023-04-15T07:26:54;1.97;;;0.40;;
16922;SDS011;8578;50.938;13.556;2023-04-15T07:29:25;0.50;;;0.40;;
16922;SDS011;8578;50.938;13.556;2023-04-15T07:31:55;1.33;;;0.60;;
16922;SDS011;8578;50.938;13.556;2023-04-15T07:34:23;1.37;;;0.60;;
16922;SDS011;8578;50.938;13.556;2023-04-15T07:36:51;0.30;;;0.30;;
16922;SDS011;8578;50.938;13.556;2023-04-15T07:39:19;0.57;;;0.57;;
16922;SDS011;8578;50.938;13.556;2023-04-15T07:41:47;0.87;;;0.40;;
16922;SDS011;8578;50.938;13.556;2023-04-15T07:44:16;0.80;;;0.37;;
16922;SDS011;8578;50.938;13.556;2023-04-15T07:46:47;1.30;;;0.30;;
16922;SDS011;8578;50.938;13.556;2023-04-15T07:49:15;0.30;;;0.30;;
16922;SDS011;8578;50.938;13.556;2023-04-15T07:51:44;0.40;;;0.30;;
16922;SDS011;8578;50.938;13.556;2023-04-15T07:54:12;0.73;;;0.40;;
16922;SDS011;8578;50.938;13.556;2023-04-15T07:56:39;1.87;;;0.50;;
16922;SDS011;8578;50.938;13.556;2023-04-15T07:59:06;1.50;;;0.60;;
16922;SDS011;8578;50.938;13.556;2023-04-15T08:01:36;1.70;;;0.90;;
16922;SDS011;8578;50.938;13.556;2023-04-15T08:04:04;3.00;;;1.30;;
16922;SDS011;8578;50.938;13.556;2023-04-15T08:06:34;1.60;;;0.90;;
16922;SDS011;8578;50.938;13.556;2023-04-15T08:09:05;0.67;;;0.40;;
16922;SDS011;8578;50.938;13.556;2023-04-15T08:11:33;0.87;;;0.70;;
16922;SDS011;8578;50.938;13.556;2023-04-15T08:14:01;1.03;;;0.40;;
16922;SDS011;8578;50.938;13.556;2023-04-15T08:16:29;1.30;;;0.70;;
16922;SDS011;8578;50.938;13.556;2023-04-15T08:18:58;0.77;;;0.20;;
16922;SDS011;8578;50.938;13.556;2023-04-15T08:21:26;0.90;;;0.40;;
16922;SDS011;8578;50.938;13.556;2023-04-15T08:23:56;3.87;;;1.43;;
16922;SDS011;8578;50.938;13.556;2023-04-15T08:26:24;1.00;;;0.70;;
16922;SDS011;8578;50.938;13.556;2023-04-15T08:28:51;0.30;;;0.30;;
16922;SDS011;8578;50.938;13.556;2023-04-15T08:31:19;1.20;;;0.40;;
16922;SDS011;8578;50.938;13.556;2023-04-15T08:33:47;0.80;;;0.50;;
16922;SDS011;8578;50.938;13.556;2023-04-15T08:36:21;1.43;;;0.83;;
16922;SDS011;8578;50.938;13.556;2023-04-15T08:38:49;1.97;;;1.10;;
16922;SDS011;8578;50.938;13.556;2023-04-15T08:41:20;1.87;;;1.30;;
16922;SDS011;8578;50.938;13.556;2023-04-15T08:43:51;3.57;;;1.90;;
16922;SDS011;8578;50.938;13.556;2023-04-15T08:46:22;3.13;;;1.77;;
16922;SDS011;8578;50.938;13.556;2023-04-15T08:48:50;2.50;;;1.83;;
16922;SDS011;8578;50.938;13.556;2023-04-15T08:51:18;2.30;;;1.60;;
16922;SDS011;8578;50.938;13.556;2023-04-15T08:53:51;2.83;;;2.00;;
16922;SDS011;8578;50.938;13.556;2023-04-15T08:56:19;2.13;;;1.60;;
16922;SDS011;8578;50.938;13.556;2023-04-15T08:58:50;2.80;;;1.40;;
16922;SDS011;8578;50.938;13.556;2023-04-15T09:01:18;2.60;;;1.13;;
16922;SDS011;8578;50.938;13.556;2023-04-15T09:03:47;1.20;;;1.00;;
16922;SDS011;8578;50.938;13.556;2023-04-15T09:06:19;1.00;;;0.90;;
16922;SDS011;8578;50.938;13.556;2023-04-15T09:08:50;1.87;;;1.30;;
16922;SDS011;8578;50.938;13.556;2023-04-15T09:11:21;2.23;;;1.50;;
16922;SDS011;8578;50.938;13.556;2023-04-15T09:13:50;3.90;;;1.37;;
16922;SDS011;8578;50.938;13.556;2023-04-15T09:16:17;6.47;;;1.70;;
16922;SDS011;8578;50.938;13.556;2023-04-15T09:18:45;1.30;;;1.10;;
16922;SDS011;8578;50.938;13.556;2023-04-15T09:21:13;1.23;;;1.07;;
16922;SDS011;8578;50.938;13.556;2023-04-15T09:23:53;1.20;;;1.07;;
16922;SDS011;8578;50.938;13.556;2023-04-15T09:26:31;1.37;;;1.10;;
16922;SDS011;8578;50.938;13.556;2023-04-15T09:29:02;1.83;;;1.30;;
16922;SDS011;8578;50.938;13.556;2023-04-15T09:31:30;1.17;;;1.03;;
16922;SDS011;8578;50.938;13.556;2023-04-15T09:33:58;2.10;;;1.27;;
16922;SDS011;8578;50.938;13.556;2023-04-15T09:36:27;1.47;;;1.20;;
16922;SDS011;8578;50.938;13.556;2023-04-15T09:38:56;2.40;;;1.13;;
16922;SDS011;8578;50.938;13.556;2023-04-15T09:41:24;1.47;;;1.20;;
16922;SDS011;8578;50.938;13.556;2023-04-15T09:43:53;0.93;;;0.87;;
16922;SDS011;8578;50.938;13.556;2023-04-15T09:46:22;0.80;;;0.80;;
16922;SDS011;8578;50.938;13.556;2023-04-15T09:49:08;0.87;;;0.80;;
16922;SDS011;8578;50.938;13.556;2023-04-15T09:51:36;1.33;;;0.93;;
16922;SDS011;8578;50.938;13.556;2023-04-15T09:54:05;0.60;;;0.57;;
16922;SDS011;8578;50.938;13.556;2023-04-15T09:56:33;1.10;;;0.77;;
16922;SDS011;8578;50.938;13.556;2023-04-15T09:59:02;0.77;;;0.70;;
16922;SDS011;8578;50.938;13.556;2023-04-15T10:01:32;2.10;;;0.97;;
16922;SDS011;8578;50.938;13.556;2023-04-15T10:04:02;1.67;;;0.80;;
16922;SDS011;8578;50.938;13.556;2023-04-15T10:06:31;0.90;;;0.70;;
16922;SDS011;8578;50.938;13.556;2023-04-15T10:09:04;0.73;;;0.60;;
16922;SDS011;8578;50.938;13.556;2023-04-15T10:11:35;1.10;;;0.80;;
16922;SDS011;8578;50.938;13.556;2023-04-15T10:14:08;1.57;;;1.20;;
16922;SDS011;8578;50.938;13.556;2023-04-15T10:16:36;2.30;;;0.90;;
16922;SDS011;8578;50.938;13.556;2023-04-15T10:19:07;1.20;;;0.80;;
16922;SDS011;8578;50.938;13.556;2023-04-15T10:21:36;1.67;;;1.00;;
16922;SDS011;8578;50.938;13.556;2023-04-15T10:24:04;0.97;;;0.77;;
16922;SDS011;8578;50.938;13.556;2023-04-15T10:26:32;1.83;;;1.43;;
16922;SDS011;8578;50.938;13.556;2023-04-15T10:29:00;2.37;;;1.50;;
16922;SDS011;8578;50.938;13.556;2023-04-15T10:31:29;3.87;;;1.43;;
16922;SDS011;8578;50.938;13.556;2023-04-15T10:33:57;1.83;;;1.33;;
16922;SDS011;8578;50.938;13.556;2023-04-15T10:36:34;2.17;;;1.00;;
16922;SDS011;8578;50.938;13.556;2023-04-15T10:39:04;1.20;;;0.90;;
16922;SDS011;8578;50.938;13.556;2023-04-15T10:42:04;0.93;;;0.80;;
16922;SDS011;8578;50.938;13.556;2023-04-15T10:44:32;3.73;;;2.60;;
16922;SDS011;8578;50.938;13.556;2023-04-15T10:47:03;2.57;;;2.07;;
16922;SDS011;8578;50.938;13.556;2023-04-15T10:49:31;2.40;;;1.17;;
16922;SDS011;8578;50.938;13.556;2023-04-15T10:51:58;1.20;;;1.10;;
16922;SDS011;8578;50.938;13.556;2023-04-15T10:54:30;1.00;;;0.83;;
16922;SDS011;8578;50.938;13.556;2023-04-15T10:57:06;1.20;;;1.00;;
16922;SDS011;8578;50.938;13.556;2023-04-15T10:59:36;1.07;;;0.97;;
16922;SDS011;8578;50.938;13.556;2023-04-15T11:02:05;1.00;;;0.90;;
16922;SDS011;8578;50.938;13.556;2023-04-15T11:04:52;0.90;;;0.83;;
16922;SDS011;8578;50.938;13.556;2023-04-15T11:07:35;1.10;;;1.00;;
16922;SDS011;8578;50.938;13.556;2023-04-15T11:10:03;1.13;;;0.93;;
16922;SDS011;8578;50.938;13.556;2023-04-15T11:12:33;1.10;;;0.90;;
16922;SDS011;8578;50.938;13.556;2023-04-15T11:17:59;1.10;;;0.97;;
16922;SDS011;8578;50.938;13.556;2023-04-15T11:20:34;1.00;;;0.90;;
16922;SDS011;8578;50.938;13.556;2023-04-15T11:23:02;1.17;;;1.07;;
16922;SDS011;8578;50.938;13.556;2023-04-15T11:25:41;1.20;;;1.10;;
16922;SDS011;8578;50.938;13.556;2023-04-15T11:28:09;1.30;;;1.07;;
16922;SDS011;8578;50.938;13.556;2023-04-15T11:30:37;1.10;;;1.00;;
16922;SDS011;8578;50.938;13.556;2023-04-15T11:33:07;1.30;;;1.10;;
16922;SDS011;8578;50.938;13.556;2023-04-15T11:35:35;1.10;;;1.00;;
16922;SDS011;8578;50.938;13.556;2023-04-15T11:38:03;1.30;;;1.00;;
16922;SDS011;8578;50.938;13.556;2023-04-15T11:40:30;1.13;;;1.03;;
16922;SDS011;8578;50.938;13.556;2023-04-15T11:43:05;1.87;;;1.30;;
16922;SDS011;8578;50.938;13.556;2023-04-15T11:45:34;1.10;;;1.00;;
16922;SDS011;8578;50.938;13.556;2023-04-15T11:48:10;1.17;;;1.07;;
16922;SDS011;8578;50.938;13.556;2023-04-15T11:50:37;1.23;;;1.13;;
16922;SDS011;8578;50.938;13.556;2023-04-15T11:53:07;1.17;;;0.97;;
16922;SDS011;8578;50.938;13.556;2023-04-15T11:55:41;1.27;;;1.17;;
16922;SDS011;8578;50.938;13.556;2023-04-15T11:58:11;1.07;;;1.00;;
16922;SDS011;8578;50.938;13.556;2023-04-15T12:00:45;1.13;;;1.03;;
16922;SDS011;8578;50.938;13.556;2023-04-15T12:03:15;0.80;;;0.80;;
16922;SDS011;8578;50.938;13.556;2023-04-15T12:06:05;1.17;;;1.00;;
16922;SDS011;8578;50.938;13.556;2023-04-15T12:08:55;2.10;;;1.63;;
16922;SDS011;8578;50.938;13.556;2023-04-15T12:11:29;1.83;;;1.60;;
16922;SDS011;8578;50.938;13.556;2023-04-15T12:13:58;1.67;;;1.50;;
16922;SDS011;8578;50.938;13.556;2023-04-15T12:16:26;1.60;;;1.50;;
16922;SDS011;8578;50.938;13.556;2023-04-15T12:18:56;1.97;;;1.60;;
16922;SDS011;8578;50.938;13.556;2023-04-15T12:21:27;5.73;;;1.80;;
16922;SDS011;8578;50.938;13.556;2023-04-15T12:23:55;3.20;;;2.30;;
16922;SDS011;8578;50.938;13.556;2023-04-15T12:26:27;2.90;;;2.23;;
16922;SDS011;8578;50.938;13.556;2023-04-15T12:28:55;2.70;;;2.03;;
16922;SDS011;8578;50.938;13.556;2023-04-15T12:31:26;2.87;;;2.13;;
16922;SDS011;8578;50.938;13.556;2023-04-15T12:33:55;3.63;;;2.23;;
16922;SDS011;8578;50.938;13.556;2023-04-15T12:36:23;2.90;;;2.27;;
16922;SDS011;8578;50.938;13.556;2023-04-15T12:38:57;2.67;;;2.37;;
16922;SDS011;8578;50.938;13.556;2023-04-15T12:41:24;3.50;;;2.67;;
16922;SDS011;8578;50.938;13.556;2023-04-15T12:43:52;3.40;;;2.70;;
16922;SDS011;8578;50.938;13.556;2023-04-15T12:46:21;4.43;;;3.00;;
16922;SDS011;8578;50.938;13.556;2023-04-15T12:48:56;2.87;;;2.43;;
16922;SDS011;8578;50.938;13.556;2023-04-15T12:51:26;3.30;;;2.60;;
16922;SDS011;8578;50.938;13.556;2023-04-15T12:53:54;3.73;;;2.90;;
16922;SDS011;8578;50.938;13.556;2023-04-15T12:56:25;3.67;;;3.07;;
16922;SDS011;8578;50.938;13.556;2023-04-15T12:58:54;5.13;;;3.37;;
16922;SDS011;8578;50.938;13.556;2023-04-15T13:01:21;3.00;;;2.60;;
16922;SDS011;8578;50.938;13.556;2023-04-15T13:03:51;3.03;;;2.57;;
16922;SDS011;8578;50.938;13.556;2023-04-15T13:06:20;2.80;;;2.50;;
16922;SDS011;8578;50.938;13.556;2023-04-15T13:08:50;4.13;;;2.43;;
16922;SDS011;8578;50.938;13.556;2023-04-15T13:11:24;3.00;;;2.60;;
16922;SDS011;8578;50.938;13.556;2023-04-15T13:13:53;4.47;;;2.47;;
16922;SDS011;8578;50.938;13.556;2023-04-15T13:16:22;3.87;;;2.80;;
16922;SDS011;8578;50.938;13.556;2023-04-15T13:18:50;4.93;;;3.10;;
16922;SDS011;8578;50.938;13.556;2023-04-15T13:21:17;4.37;;;2.63;;
16922;SDS011;8578;50.938;13.556;2023-04-15T13:23:47;3.30;;;2.50;;
16922;SDS011;8578;50.938;13.556;2023-04-15T13:26:14;3.17;;;2.43;;
16922;SDS011;8578;50.938;13.556;2023-04-15T13:28:42;3.60;;;2.80;;
16922;SDS011;8578;50.938;13.556;2023-04-15T13:31:09;5.17;;;2.40;;
16922;SDS011;8578;50.938;13.556;2023-04-15T13:33:37;4.10;;;2.93;;
16922;SDS011;8578;50.938;13.556;2023-04-15T13:36:05;4.03;;;2.67;;
16922;SDS011;8578;50.938;13.556;2023-04-15T13:38:33;3.43;;;2.70;;
16922;SDS011;8578;50.938;13.556;2023-04-15T13:41:01;4.13;;;3.20;;
16922;SDS011;8578;50.938;13.556;2023-04-15T13:43:29;4.20;;;3.27;;
16922;SDS011;8578;50.938;13.556;2023-04-15T13:45:59;6.50;;;3.60;;
16922;SDS011;8578;50.938;13.556;2023-04-15T13:48:28;4.43;;;3.50;;
16922;SDS011;8578;50.938;13.556;2023-04-15T13:50:56;4.00;;;3.13;;
16922;SDS011;8578;50.938;13.556;2023-04-15T13:53:24;5.03;;;3.33;;
16922;SDS011;8578;50.938;13.556;2023-04-15T13:56:05;3.67;;;3.03;;
16922;SDS011;8578;50.938;13.556;2023-04-15T13:58:33;4.90;;;3.30;;
16922;SDS011;8578;50.938;13.556;2023-04-15T14:01:00;5.13;;;2.90;;
16922;SDS011;8578;50.938;13.556;2023-04-15T14:03:31;5.80;;;3.60;;
16922;SDS011;8578;50.938;13.556;2023-04-15T14:05:59;3.80;;;3.27;;
16922;SDS011;8578;50.938;13.556;2023-04-15T14:08:27;4.47;;;3.47;;
16922;SDS011;8578;50.938;13.556;2023-04-15T14:10:54;5.90;;;4.17;;
16922;SDS011;8578;50.938;13.556;2023-04-15T14:13:24;5.67;;;4.00;;
16922;SDS011;8578;50.938;13.556;2023-04-15T14:15:52;6.07;;;4.20;;
16922;SDS011;8578;50.938;13.556;2023-04-15T14:18:19;4.77;;;3.43;;
16922;SDS011;8578;50.938;13.556;2023-04-15T14:20:47;5.83;;;4.00;;
16922;SDS011;8578;50.938;13.556;2023-04-15T14:23:14;5.83;;;4.10;;
16922;SDS011;8578;50.938;13.556;2023-04-15T14:25:41;5.60;;;4.30;;
16922;SDS011;8578;50.938;13.556;2023-04-15T14:28:12;5.80;;;4.30;;
16922;SDS011;8578;50.938;13.556;2023-04-15T14:30:41;6.60;;;4.33;;
16922;SDS011;8578;50.938;13.556;2023-04-15T14:33:08;6.53;;;4.37;;
16922;SDS011;8578;50.938;13.556;2023-04-15T14:35:36;6.30;;;4.30;;
16922;SDS011;8578;50.938;13.556;2023-04-15T14:38:03;5.30;;;3.73;;
16922;SDS011;8578;50.938;13.556;2023-04-15T14:40:32;4.73;;;3.63;;
16922;SDS011;8578;50.938;13.556;2023-04-15T14:42:59;5.63;;;3.90;;
16922;SDS011;8578;50.938;13.556;2023-04-15T14:45:28;4.87;;;3.73;;
16922;SDS011;8578;50.938;13.556;2023-04-15T14:47:57;6.67;;;3.40;;
16922;SDS011;8578;50.938;13.556;2023-04-15T14:50:25;4.37;;;3.37;;
16922;SDS011;8578;50.938;13.556;2023-04-15T14:52:52;5.93;;;3.90;;
16922;SDS011;8578;50.938;13.556;2023-04-15T14:55:20;4.30;;;3.23;;
16922;SDS011;8578;50.938;13.556;2023-04-15T14:57:48;4.97;;;3.60;;
16922;SDS011;8578;50.938;13.556;2023-04-15T15:00:16;4.37;;;3.40;;
16922;SDS011;8578;50.938;13.556;2023-04-15T15:02:44;4.40;;;3.47;;